sensor_id;sensor_type;location;lat;lon;timestamp;P1;durP1;ratioP1;P2;durP2;ratioP2
52554;SDS011;38455;52.710;6.502;2022-08-11T00:00:34;4.72;;;2.63;;
52554;SDS011;38455;52.710;6.502;2022-08-11T00:03:11;3.88;;;2.63;;
52554;SDS011;38455;52.710;6.502;2022-08-11T00:05:50;10.77;;;3.13;;
52554;SDS011;38455;52.710;6.502;2022-08-11T00:08:20;5.78;;;3.35;;
52554;SDS011;38455;52.710;6.502;2022-08-11T00:11:21;5.10;;;2.70;;
52554;SDS011;38455;52.710;6.502;2022-08-11T00:13:41;3.75;;;2.92;;
52554;SDS011;38455;52.710;6.502;2022-08-11T00:16:14;6.10;;;3.03;;
52554;SDS011;38455;52.710;6.502;2022-08-11T00:18:43;4.03;;;2.97;;
52554;SDS011;38455;52.710;6.502;2022-08-11T00:21:12;5.30;;;2.88;;
52554;SDS011;38455;52.710;6.502;2022-08-11T00:23:43;4.75;;;2.88;;
52554;SDS011;38455;52.710;6.502;2022-08-11T00:26:11;5.65;;;2.30;;
52554;SDS011;38455;52.710;6.502;2022-08-11T00:28:38;4.40;;;2.25;;
52554;SDS011;38455;52.710;6.502;2022-08-11T00:31:06;3.58;;;2.70;;
52554;SDS011;38455;52.710;6.502;2022-08-11T00:33:39;8.77;;;3.00;;
52554;SDS011;38455;52.710;6.502;2022-08-11T00:36:07;5.53;;;3.25;;
52554;SDS011;38455;52.710;6.502;2022-08-11T00:38:38;3.55;;;2.75;;
52554;SDS011;38455;52.710;6.502;2022-08-11T00:43:38;5.32;;;2.97;;
52554;SDS011;38455;52.710;6.502;2022-08-11T00:46:44;5.55;;;3.65;;
52554;SDS011;38455;52.710;6.502;2022-08-11T00:55:36;6.53;;;3.05;;
52554;SDS011;38455;52.710;6.502;2022-08-11T01:12:49;6.80;;;4.32;;
52554;SDS011;38455;52.710;6.502;2022-08-11T01:41:06;6.72;;;3.85;;
52554;SDS011;38455;52.710;6.502;2022-08-11T01:43:46;7.20;;;3.38;;
52554;SDS011;38455;52.710;6.502;2022-08-11T01:47:08;5.50;;;3.70;;
52554;SDS011;38455;52.710;6.502;2022-08-11T01:50:11;5.10;;;3.60;;
52554;SDS011;38455;52.710;6.502;2022-08-11T01:52:54;6.97;;;4.30;;
52554;SDS011;38455;52.710;6.502;2022-08-11T01:55:33;11.15;;;4.25;;
52554;SDS011;38455;52.710;6.502;2022-08-11T01:58:12;5.40;;;3.95;;
52554;SDS011;38455;52.710;6.502;2022-08-11T02:01:01;6.55;;;4.20;;
52554;SDS011;38455;52.710;6.502;2022-08-11T02:07:03;13.18;;;4.57;;
52554;SDS011;38455;52.710;6.502;2022-08-11T02:12:14;6.72;;;4.47;;
52554;SDS011;38455;52.710;6.502;2022-08-11T02:15:01;10.05;;;4.35;;
52554;SDS011;38455;52.710;6.502;2022-08-11T02:21:01;7.00;;;4.50;;
52554;SDS011;38455;52.710;6.502;2022-08-11T02:26:19;6.93;;;4.00;;
52554;SDS011;38455;52.710;6.502;2022-08-11T02:36:45;7.22;;;4.63;;
52554;SDS011;38455;52.710;6.502;2022-08-11T02:39:22;6.88;;;4.07;;
52554;SDS011;38455;52.710;6.502;2022-08-11T02:42:15;13.07;;;5.07;;
52554;SDS011;38455;52.710;6.502;2022-08-11T02:45:07;8.75;;;4.72;;
52554;SDS011;38455;52.710;6.502;2022-08-11T02:56:20;7.40;;;4.50;;
52554;SDS011;38455;52.710;6.502;2022-08-11T02:59:29;6.57;;;4.80;;
52554;SDS011;38455;52.710;6.502;2022-08-11T03:05:11;7.32;;;4.55;;
52554;SDS011;38455;52.710;6.502;2022-08-11T03:10:41;7.90;;;4.95;;
52554;SDS011;38455;52.710;6.502;2022-08-11T03:13:55;6.88;;;4.97;;
52554;SDS011;38455;52.710;6.502;2022-08-11T03:22:46;10.37;;;5.40;;
52554;SDS011;38455;52.710;6.502;2022-08-11T03:31:17;8.40;;;5.53;;
52554;SDS011;38455;52.710;6.502;2022-08-11T03:33:46;7.93;;;5.38;;
52554;SDS011;38455;52.710;6.502;2022-08-11T03:39:19;9.35;;;6.28;;
52554;SDS011;38455;52.710;6.502;2022-08-11T03:45:06;10.00;;;6.07;;
52554;SDS011;38455;52.710;6.502;2022-08-11T03:53:41;10.48;;;6.20;;
52554;SDS011;38455;52.710;6.502;2022-08-11T04:15:07;8.43;;;5.93;;
52554;SDS011;38455;52.710;6.502;2022-08-11T04:21:48;8.20;;;6.07;;
52554;SDS011;38455;52.710;6.502;2022-08-11T04:24:46;10.52;;;5.82;;
52554;SDS011;38455;52.710;6.502;2022-08-11T04:30:06;9.82;;;6.85;;
52554;SDS011;38455;52.710;6.502;2022-08-11T04:41:55;10.55;;;7.28;;
52554;SDS011;38455;52.710;6.502;2022-08-11T04:56:47;9.43;;;6.38;;
52554;SDS011;38455;52.710;6.502;2022-08-11T05:05:45;11.45;;;6.65;;
52554;SDS011;38455;52.710;6.502;2022-08-11T05:14:22;9.27;;;6.43;;
52554;SDS011;38455;52.710;6.502;2022-08-11T05:17:30;9.25;;;6.25;;
52554;SDS011;38455;52.710;6.502;2022-08-11T05:20:20;9.77;;;6.75;;
52554;SDS011;38455;52.710;6.502;2022-08-11T05:23:07;12.30;;;6.47;;
52554;SDS011;38455;52.710;6.502;2022-08-11T05:25:54;8.48;;;6.10;;
52554;SDS011;38455;52.710;6.502;2022-08-11T05:28:52;9.70;;;5.78;;
52554;SDS011;38455;52.710;6.502;2022-08-11T05:31:40;10.32;;;5.88;;
52554;SDS011;38455;52.710;6.502;2022-08-11T05:34:32;8.63;;;5.20;;
52554;SDS011;38455;52.710;6.502;2022-08-11T05:39:58;8.45;;;5.47;;
52554;SDS011;38455;52.710;6.502;2022-08-11T05:42:47;8.90;;;5.28;;
52554;SDS011;38455;52.710;6.502;2022-08-11T05:45:33;7.28;;;5.28;;
52554;SDS011;38455;52.710;6.502;2022-08-11T05:48:19;6.97;;;4.67;;
52554;SDS011;38455;52.710;6.502;2022-08-11T05:51:04;7.43;;;5.00;;
52554;SDS011;38455;52.710;6.502;2022-08-11T05:53:53;9.30;;;5.32;;
52554;SDS011;38455;52.710;6.502;2022-08-11T05:56:43;7.22;;;5.15;;
52554;SDS011;38455;52.710;6.502;2022-08-11T05:59:16;8.95;;;4.55;;
52554;SDS011;38455;52.710;6.502;2022-08-11T06:01:43;8.65;;;5.63;;
52554;SDS011;38455;52.710;6.502;2022-08-11T06:04:18;8.32;;;4.32;;
52554;SDS011;38455;52.710;6.502;2022-08-11T06:06:50;6.32;;;4.50;;
52554;SDS011;38455;52.710;6.502;2022-08-11T06:09:35;6.60;;;4.30;;
52554;SDS011;38455;52.710;6.502;2022-08-11T06:12:27;9.73;;;4.65;;
52554;SDS011;38455;52.710;6.502;2022-08-11T06:15:09;6.32;;;4.57;;
52554;SDS011;38455;52.710;6.502;2022-08-11T06:17:42;7.60;;;4.70;;
52554;SDS011;38455;52.710;6.502;2022-08-11T06:20:10;10.93;;;4.75;;
52554;SDS011;38455;52.710;6.502;2022-08-11T06:22:40;7.40;;;4.45;;
52554;SDS011;38455;52.710;6.502;2022-08-11T06:25:09;7.20;;;4.10;;
52554;SDS011;38455;52.710;6.502;2022-08-11T06:27:36;5.50;;;4.05;;
52554;SDS011;38455;52.710;6.502;2022-08-11T06:30:05;9.02;;;4.10;;
52554;SDS011;38455;52.710;6.502;2022-08-11T06:32:38;7.65;;;4.18;;
52554;SDS011;38455;52.710;6.502;2022-08-11T06:43:47;5.53;;;3.35;;
52554;SDS011;38455;52.710;6.502;2022-08-11T06:46:27;6.82;;;3.72;;
52554;SDS011;38455;52.710;6.502;2022-08-11T06:48:55;6.25;;;3.25;;
52554;SDS011;38455;52.710;6.502;2022-08-11T06:51:21;6.22;;;3.72;;
52554;SDS011;38455;52.710;6.502;2022-08-11T06:56:22;5.78;;;2.88;;
52554;SDS011;38455;52.710;6.502;2022-08-11T06:59:10;6.50;;;3.40;;
52554;SDS011;38455;52.710;6.502;2022-08-11T07:02:11;5.10;;;3.20;;
52554;SDS011;38455;52.710;6.502;2022-08-11T07:13:07;4.25;;;2.95;;
52554;SDS011;38455;52.710;6.502;2022-08-11T07:15:55;3.65;;;2.72;;
52554;SDS011;38455;52.710;6.502;2022-08-11T07:18:26;3.95;;;2.67;;
52554;SDS011;38455;52.710;6.502;2022-08-11T07:21:31;4.03;;;2.10;;
52554;SDS011;38455;52.710;6.502;2022-08-11T07:24:25;4.75;;;2.17;;
52554;SDS011;38455;52.710;6.502;2022-08-11T07:27:13;3.17;;;2.00;;
52554;SDS011;38455;52.710;6.502;2022-08-11T07:30:03;9.73;;;1.80;;
52554;SDS011;38455;52.710;6.502;2022-08-11T07:32:35;2.85;;;2.00;;
52554;SDS011;38455;52.710;6.502;2022-08-11T07:35:11;2.47;;;1.30;;
52554;SDS011;38455;52.710;6.502;2022-08-11T07:37:42;3.08;;;1.90;;
52554;SDS011;38455;52.710;6.502;2022-08-11T07:40:13;3.60;;;1.40;;
52554;SDS011;38455;52.710;6.502;2022-08-11T07:42:40;3.88;;;1.38;;
52554;SDS011;38455;52.710;6.502;2022-08-11T07:45:10;3.42;;;1.60;;
52554;SDS011;38455;52.710;6.502;2022-08-11T07:47:56;2.53;;;1.20;;
52554;SDS011;38455;52.710;6.502;2022-08-11T07:50:41;3.28;;;1.13;;
52554;SDS011;38455;52.710;6.502;2022-08-11T07:53:26;3.85;;;1.20;;
52554;SDS011;38455;52.710;6.502;2022-08-11T07:55:54;2.83;;;1.30;;
52554;SDS011;38455;52.710;6.502;2022-08-11T07:58:22;3.60;;;1.30;;
52554;SDS011;38455;52.710;6.502;2022-08-11T08:01:08;4.38;;;1.52;;
52554;SDS011;38455;52.710;6.502;2022-08-11T08:03:54;3.15;;;1.63;;
52554;SDS011;38455;52.710;6.502;2022-08-11T08:06:42;2.13;;;1.10;;
52554;SDS011;38455;52.710;6.502;2022-08-11T08:09:27;1.67;;;0.98;;
52554;SDS011;38455;52.710;6.502;2022-08-11T08:12:15;2.38;;;1.05;;
52554;SDS011;38455;52.710;6.502;2022-08-11T08:15:04;3.92;;;1.05;;
52554;SDS011;38455;52.710;6.502;2022-08-11T08:17:50;4.63;;;1.67;;
52554;SDS011;38455;52.710;6.502;2022-08-11T08:20:22;1.65;;;0.80;;
52554;SDS011;38455;52.710;6.502;2022-08-11T08:22:52;3.72;;;1.10;;
52554;SDS011;38455;52.710;6.502;2022-08-11T08:25:22;3.42;;;1.20;;
52554;SDS011;38455;52.710;6.502;2022-08-11T08:27:49;3.67;;;1.23;;
52554;SDS011;38455;52.710;6.502;2022-08-11T08:30:16;4.50;;;0.90;;
52554;SDS011;38455;52.710;6.502;2022-08-11T08:33:01;4.50;;;0.95;;
52554;SDS011;38455;52.710;6.502;2022-08-11T08:35:28;2.17;;;0.85;;
52554;SDS011;38455;52.710;6.502;2022-08-11T08:37:55;2.00;;;0.98;;
52554;SDS011;38455;52.710;6.502;2022-08-11T08:40:21;3.03;;;1.45;;
52554;SDS011;38455;52.710;6.502;2022-08-11T08:42:48;1.23;;;0.70;;
52554;SDS011;38455;52.710;6.502;2022-08-11T08:45:19;5.47;;;1.13;;
52554;SDS011;38455;52.710;6.502;2022-08-11T08:47:58;5.47;;;1.20;;
52554;SDS011;38455;52.710;6.502;2022-08-11T08:50:44;5.40;;;0.90;;
52554;SDS011;38455;52.710;6.502;2022-08-11T08:55:59;0.80;;;0.65;;
52554;SDS011;38455;52.710;6.502;2022-08-11T08:58:26;3.28;;;0.70;;
52554;SDS011;38455;52.710;6.502;2022-08-11T09:00:53;1.75;;;0.63;;
52554;SDS011;38455;52.710;6.502;2022-08-11T09:03:22;1.88;;;0.82;;
52554;SDS011;38455;52.710;6.502;2022-08-11T09:05:48;1.85;;;0.70;;
52554;SDS011;38455;52.710;6.502;2022-08-11T09:08:18;2.58;;;0.70;;
52554;SDS011;38455;52.710;6.502;2022-08-11T09:10:46;3.72;;;0.75;;
52554;SDS011;38455;52.710;6.502;2022-08-11T09:13:33;3.97;;;0.68;;
52554;SDS011;38455;52.710;6.502;2022-08-11T09:16:00;1.92;;;0.68;;
52554;SDS011;38455;52.710;6.502;2022-08-11T09:18:29;2.50;;;0.70;;
52554;SDS011;38455;52.710;6.502;2022-08-11T09:20:56;3.55;;;0.90;;
52554;SDS011;38455;52.710;6.502;2022-08-11T09:23:23;1.58;;;0.80;;
52554;SDS011;38455;52.710;6.502;2022-08-11T09:26:08;1.05;;;0.63;;
52554;SDS011;38455;52.710;6.502;2022-08-11T09:28:53;1.48;;;0.80;;
52554;SDS011;38455;52.710;6.502;2022-08-11T09:31:19;4.32;;;0.70;;
52554;SDS011;38455;52.710;6.502;2022-08-11T09:33:46;3.45;;;0.60;;
52554;SDS011;38455;52.710;6.502;2022-08-11T09:36:16;2.33;;;0.70;;
52554;SDS011;38455;52.710;6.502;2022-08-11T09:39:03;2.00;;;0.80;;
52554;SDS011;38455;52.710;6.502;2022-08-11T09:41:49;1.80;;;0.70;;
52554;SDS011;38455;52.710;6.502;2022-08-11T09:44:15;1.23;;;0.63;;
52554;SDS011;38455;52.710;6.502;2022-08-11T09:47:00;0.95;;;0.65;;
52554;SDS011;38455;52.710;6.502;2022-08-11T09:49:26;4.93;;;0.90;;
52554;SDS011;38455;52.710;6.502;2022-08-11T09:51:53;3.20;;;0.90;;
52554;SDS011;38455;52.710;6.502;2022-08-11T09:54:19;2.72;;;1.00;;
52554;SDS011;38455;52.710;6.502;2022-08-11T09:56:47;2.75;;;0.80;;
52554;SDS011;38455;52.710;6.502;2022-08-11T09:59:34;3.78;;;1.10;;
52554;SDS011;38455;52.710;6.502;2022-08-11T10:02:01;2.13;;;1.02;;
52554;SDS011;38455;52.710;6.502;2022-08-11T10:04:35;3.33;;;1.20;;
52554;SDS011;38455;52.710;6.502;2022-08-11T10:07:06;4.25;;;1.10;;
52554;SDS011;38455;52.710;6.502;2022-08-11T10:09:37;2.45;;;1.00;;
52554;SDS011;38455;52.710;6.502;2022-08-11T10:12:05;2.53;;;1.08;;
52554;SDS011;38455;52.710;6.502;2022-08-11T10:14:40;2.05;;;0.93;;
52554;SDS011;38455;52.710;6.502;2022-08-11T10:17:28;2.85;;;1.13;;
52554;SDS011;38455;52.710;6.502;2022-08-11T10:19:57;2.25;;;1.05;;
52554;SDS011;38455;52.710;6.502;2022-08-11T10:22:27;1.13;;;0.80;;
52554;SDS011;38455;52.710;6.502;2022-08-11T10:25:12;1.63;;;1.08;;
52554;SDS011;38455;52.710;6.502;2022-08-11T10:27:58;2.42;;;0.90;;
52554;SDS011;38455;52.710;6.502;2022-08-11T10:30:25;1.23;;;0.73;;
52554;SDS011;38455;52.710;6.502;2022-08-11T10:33:13;6.88;;;1.00;;
52554;SDS011;38455;52.710;6.502;2022-08-11T10:35:59;4.05;;;1.02;;
52554;SDS011;38455;52.710;6.502;2022-08-11T10:38:26;3.70;;;0.73;;
52554;SDS011;38455;52.710;6.502;2022-08-11T10:40:54;3.60;;;0.75;;
52554;SDS011;38455;52.710;6.502;2022-08-11T10:43:38;3.75;;;0.90;;
52554;SDS011;38455;52.710;6.502;2022-08-11T10:46:14;1.90;;;0.85;;
52554;SDS011;38455;52.710;6.502;2022-08-11T10:48:58;2.40;;;1.00;;
52554;SDS011;38455;52.710;6.502;2022-08-11T10:51:25;1.45;;;0.60;;
52554;SDS011;38455;52.710;6.502;2022-08-11T10:54:10;1.30;;;0.70;;
52554;SDS011;38455;52.710;6.502;2022-08-11T10:56:58;1.73;;;0.82;;
52554;SDS011;38455;52.710;6.502;2022-08-11T10:59:43;4.97;;;0.80;;
52554;SDS011;38455;52.710;6.502;2022-08-11T11:02:11;2.88;;;0.70;;
52554;SDS011;38455;52.710;6.502;2022-08-11T11:04:58;3.05;;;0.93;;
52554;SDS011;38455;52.710;6.502;2022-08-11T11:07:37;3.03;;;0.60;;
52554;SDS011;38455;52.710;6.502;2022-08-11T11:10:11;1.85;;;0.90;;
52554;SDS011;38455;52.710;6.502;2022-08-11T11:15:27;2.92;;;0.95;;
52554;SDS011;38455;52.710;6.502;2022-08-11T11:18:18;2.25;;;0.90;;
52554;SDS011;38455;52.710;6.502;2022-08-11T11:20:58;4.32;;;0.80;;
52554;SDS011;38455;52.710;6.502;2022-08-11T11:26:31;2.35;;;0.70;;
52554;SDS011;38455;52.710;6.502;2022-08-11T11:34:50;9.93;;;1.10;;
52554;SDS011;38455;52.710;6.502;2022-08-11T11:37:32;1.27;;;0.70;;
52554;SDS011;38455;52.710;6.502;2022-08-11T11:39:59;0.93;;;0.60;;
52554;SDS011;38455;52.710;6.502;2022-08-11T11:42:26;0.60;;;0.50;;
52554;SDS011;38455;52.710;6.502;2022-08-11T11:44:53;8.02;;;0.80;;
52554;SDS011;38455;52.710;6.502;2022-08-11T11:47:19;3.45;;;0.60;;
52554;SDS011;38455;52.710;6.502;2022-08-11T11:49:47;1.17;;;0.80;;
52554;SDS011;38455;52.710;6.502;2022-08-11T11:52:14;2.03;;;0.52;;
52554;SDS011;38455;52.710;6.502;2022-08-11T11:54:43;5.25;;;0.68;;
52554;SDS011;38455;52.710;6.502;2022-08-11T11:57:10;3.08;;;0.98;;
52554;SDS011;38455;52.710;6.502;2022-08-11T12:02:49;3.05;;;0.45;;
52554;SDS011;38455;52.710;6.502;2022-08-11T12:05:16;1.52;;;0.90;;
52554;SDS011;38455;52.710;6.502;2022-08-11T12:07:43;1.67;;;0.75;;
52554;SDS011;38455;52.710;6.502;2022-08-11T12:10:27;0.85;;;0.68;;
52554;SDS011;38455;52.710;6.502;2022-08-11T12:12:55;4.00;;;0.82;;
52554;SDS011;38455;52.710;6.502;2022-08-11T12:15:41;1.15;;;0.70;;
52554;SDS011;38455;52.710;6.502;2022-08-11T12:18:07;2.42;;;0.88;;
52554;SDS011;38455;52.710;6.502;2022-08-11T12:20:34;2.05;;;0.60;;
52554;SDS011;38455;52.710;6.502;2022-08-11T12:23:02;1.80;;;0.85;;
52554;SDS011;38455;52.710;6.502;2022-08-11T12:25:47;3.38;;;0.68;;
52554;SDS011;38455;52.710;6.502;2022-08-11T12:30:57;1.67;;;0.60;;
52554;SDS011;38455;52.710;6.502;2022-08-11T12:33:24;2.20;;;0.63;;
52554;SDS011;38455;52.710;6.502;2022-08-11T12:35:57;1.50;;;0.80;;
52554;SDS011;38455;52.710;6.502;2022-08-11T12:38:24;1.27;;;0.80;;
52554;SDS011;38455;52.710;6.502;2022-08-11T12:40:51;1.30;;;0.70;;
52554;SDS011;38455;52.710;6.502;2022-08-11T12:43:36;2.17;;;0.65;;
52554;SDS011;38455;52.710;6.502;2022-08-11T12:46:22;1.90;;;0.60;;
52554;SDS011;38455;52.710;6.502;2022-08-11T12:48:56;4.25;;;0.75;;
52554;SDS011;38455;52.710;6.502;2022-08-11T12:51:44;1.00;;;0.80;;
52554;SDS011;38455;52.710;6.502;2022-08-11T12:57:25;2.55;;;0.82;;
52554;SDS011;38455;52.710;6.502;2022-08-11T13:00:13;2.45;;;0.73;;
52554;SDS011;38455;52.710;6.502;2022-08-11T13:02:59;1.38;;;0.60;;
52554;SDS011;38455;52.710;6.502;2022-08-11T13:05:45;1.65;;;0.88;;
52554;SDS011;38455;52.710;6.502;2022-08-11T13:08:12;5.95;;;1.05;;
52554;SDS011;38455;52.710;6.502;2022-08-11T13:10:41;5.53;;;1.40;;
52554;SDS011;38455;52.710;6.502;2022-08-11T13:13:26;1.48;;;0.70;;
52554;SDS011;38455;52.710;6.502;2022-08-11T13:15:53;1.63;;;0.65;;
52554;SDS011;38455;52.710;6.502;2022-08-11T13:18:21;2.03;;;0.90;;
52554;SDS011;38455;52.710;6.502;2022-08-11T13:20:47;3.78;;;0.93;;
52554;SDS011;38455;52.710;6.502;2022-08-11T13:23:17;2.78;;;0.60;;
52554;SDS011;38455;52.710;6.502;2022-08-11T13:25:44;2.58;;;0.82;;
52554;SDS011;38455;52.710;6.502;2022-08-11T13:28:10;1.67;;;0.68;;
52554;SDS011;38455;52.710;6.502;2022-08-11T13:30:36;1.17;;;0.77;;
52554;SDS011;38455;52.710;6.502;2022-08-11T13:33:42;2.08;;;0.98;;
52554;SDS011;38455;52.710;6.502;2022-08-11T13:36:11;2.20;;;0.80;;
52554;SDS011;38455;52.710;6.502;2022-08-11T13:38:39;3.55;;;0.70;;
52554;SDS011;38455;52.710;6.502;2022-08-11T13:41:08;4.18;;;0.63;;
52554;SDS011;38455;52.710;6.502;2022-08-11T13:43:53;1.90;;;0.70;;
52554;SDS011;38455;52.710;6.502;2022-08-11T13:46:20;1.38;;;0.60;;
52554;SDS011;38455;52.710;6.502;2022-08-11T13:48:48;2.28;;;1.00;;
52554;SDS011;38455;52.710;6.502;2022-08-11T13:51:16;1.73;;;0.77;;
52554;SDS011;38455;52.710;6.502;2022-08-11T13:53:56;2.45;;;0.60;;
52554;SDS011;38455;52.710;6.502;2022-08-11T13:56:34;1.33;;;0.60;;
52554;SDS011;38455;52.710;6.502;2022-08-11T13:59:04;2.03;;;0.70;;
52554;SDS011;38455;52.710;6.502;2022-08-11T14:01:33;0.93;;;0.80;;
52554;SDS011;38455;52.710;6.502;2022-08-11T14:04:07;1.52;;;0.65;;
52554;SDS011;38455;52.710;6.502;2022-08-11T14:06:40;2.42;;;0.90;;
52554;SDS011;38455;52.710;6.502;2022-08-11T14:09:10;2.38;;;0.85;;
52554;SDS011;38455;52.710;6.502;2022-08-11T14:11:39;3.35;;;1.20;;
52554;SDS011;38455;52.710;6.502;2022-08-11T14:14:26;4.15;;;0.70;;
52554;SDS011;38455;52.710;6.502;2022-08-11T14:16:58;1.00;;;0.60;;
52554;SDS011;38455;52.710;6.502;2022-08-11T14:19:29;2.05;;;0.80;;
52554;SDS011;38455;52.710;6.502;2022-08-11T14:21:59;0.90;;;0.50;;
52554;SDS011;38455;52.710;6.502;2022-08-11T14:24:42;0.93;;;0.70;;
52554;SDS011;38455;52.710;6.502;2022-08-11T14:27:16;2.45;;;1.08;;
52554;SDS011;38455;52.710;6.502;2022-08-11T14:29:42;3.78;;;0.60;;
52554;SDS011;38455;52.710;6.502;2022-08-11T14:32:11;2.05;;;0.68;;
52554;SDS011;38455;52.710;6.502;2022-08-11T14:34:40;0.45;;;0.40;;
52554;SDS011;38455;52.710;6.502;2022-08-11T14:37:07;2.00;;;0.65;;
52554;SDS011;38455;52.710;6.502;2022-08-11T14:39:48;4.95;;;0.70;;
52554;SDS011;38455;52.710;6.502;2022-08-11T14:42:20;0.90;;;0.65;;
52554;SDS011;38455;52.710;6.502;2022-08-11T14:45:10;1.88;;;0.57;;
52554;SDS011;38455;52.710;6.502;2022-08-11T14:47:58;1.33;;;0.70;;
52554;SDS011;38455;52.710;6.502;2022-08-11T14:50:26;1.88;;;0.75;;
52554;SDS011;38455;52.710;6.502;2022-08-11T14:53:00;2.00;;;0.82;;
52554;SDS011;38455;52.710;6.502;2022-08-11T14:55:29;3.92;;;0.80;;
52554;SDS011;38455;52.710;6.502;2022-08-11T14:58:19;2.90;;;1.10;;
52554;SDS011;38455;52.710;6.502;2022-08-11T15:00:49;2.22;;;1.08;;
52554;SDS011;38455;52.710;6.502;2022-08-11T15:03:18;2.88;;;0.82;;
52554;SDS011;38455;52.710;6.502;2022-08-11T15:05:49;1.30;;;0.63;;
52554;SDS011;38455;52.710;6.502;2022-08-11T15:08:17;2.28;;;0.70;;
52554;SDS011;38455;52.710;6.502;2022-08-11T15:10:44;3.35;;;0.80;;
52554;SDS011;38455;52.710;6.502;2022-08-11T15:13:14;2.13;;;0.63;;
52554;SDS011;38455;52.710;6.502;2022-08-11T15:15:44;0.88;;;0.50;;
52554;SDS011;38455;52.710;6.502;2022-08-11T15:18:29;2.33;;;0.90;;
52554;SDS011;38455;52.710;6.502;2022-08-11T15:20:56;1.52;;;0.60;;
52554;SDS011;38455;52.710;6.502;2022-08-11T15:23:40;1.67;;;0.68;;
52554;SDS011;38455;52.710;6.502;2022-08-11T15:26:36;1.83;;;1.02;;
52554;SDS011;38455;52.710;6.502;2022-08-11T15:29:24;1.42;;;0.77;;
52554;SDS011;38455;52.710;6.502;2022-08-11T15:32:12;2.83;;;0.80;;
52554;SDS011;38455;52.710;6.502;2022-08-11T15:34:48;1.92;;;1.13;;
52554;SDS011;38455;52.710;6.502;2022-08-11T15:37:40;3.40;;;0.60;;
52554;SDS011;38455;52.710;6.502;2022-08-11T15:40:10;1.20;;;0.57;;
52554;SDS011;38455;52.710;6.502;2022-08-11T15:43:03;1.42;;;0.70;;
52554;SDS011;38455;52.710;6.502;2022-08-11T15:45:56;2.90;;;0.52;;
52554;SDS011;38455;52.710;6.502;2022-08-11T15:51:05;1.27;;;0.85;;
52554;SDS011;38455;52.710;6.502;2022-08-11T15:53:52;1.90;;;0.90;;
52554;SDS011;38455;52.710;6.502;2022-08-11T15:56:22;3.53;;;0.90;;
52554;SDS011;38455;52.710;6.502;2022-08-11T15:58:51;2.88;;;1.00;;
52554;SDS011;38455;52.710;6.502;2022-08-11T16:01:38;1.23;;;0.73;;
52554;SDS011;38455;52.710;6.502;2022-08-11T16:04:25;2.33;;;0.88;;
52554;SDS011;38455;52.710;6.502;2022-08-11T16:09:33;2.33;;;1.38;;
52554;SDS011;38455;52.710;6.502;2022-08-11T16:12:03;6.00;;;1.00;;
52554;SDS011;38455;52.710;6.502;2022-08-11T16:14:33;1.65;;;0.60;;
52554;SDS011;38455;52.710;6.502;2022-08-11T16:17:22;1.30;;;0.65;;
52554;SDS011;38455;52.710;6.502;2022-08-11T16:19:50;4.47;;;1.10;;
52554;SDS011;38455;52.710;6.502;2022-08-11T16:22:28;2.28;;;0.90;;
52554;SDS011;38455;52.710;6.502;2022-08-11T16:25:17;3.45;;;0.95;;
52554;SDS011;38455;52.710;6.502;2022-08-11T16:27:48;7.00;;;1.27;;
52554;SDS011;38455;52.710;6.502;2022-08-11T16:30:17;3.63;;;0.80;;
52554;SDS011;38455;52.710;6.502;2022-08-11T16:32:44;4.90;;;0.98;;
52554;SDS011;38455;52.710;6.502;2022-08-11T16:35:16;1.63;;;0.68;;
52554;SDS011;38455;52.710;6.502;2022-08-11T16:38:03;1.50;;;0.90;;
52554;SDS011;38455;52.710;6.502;2022-08-11T16:40:50;3.50;;;0.80;;
52554;SDS011;38455;52.710;6.502;2022-08-11T16:43:18;3.05;;;0.90;;
52554;SDS011;38455;52.710;6.502;2022-08-11T16:46:06;3.25;;;0.82;;
52554;SDS011;38455;52.710;6.502;2022-08-11T16:49:23;1.25;;;0.70;;
52554;SDS011;38455;52.710;6.502;2022-08-11T16:52:14;2.65;;;0.57;;
52554;SDS011;38455;52.710;6.502;2022-08-11T16:54:41;4.50;;;0.80;;
52554;SDS011;38455;52.710;6.502;2022-08-11T16:57:08;4.20;;;0.90;;
52554;SDS011;38455;52.710;6.502;2022-08-11T17:00:00;2.47;;;0.70;;
52554;SDS011;38455;52.710;6.502;2022-08-11T17:02:31;4.65;;;1.10;;
52554;SDS011;38455;52.710;6.502;2022-08-11T17:05:18;0.82;;;0.70;;
52554;SDS011;38455;52.710;6.502;2022-08-11T17:08:07;1.85;;;0.90;;
52554;SDS011;38455;52.710;6.502;2022-08-11T17:10:55;2.97;;;0.80;;
52554;SDS011;38455;52.710;6.502;2022-08-11T17:13:56;2.65;;;0.90;;
52554;SDS011;38455;52.710;6.502;2022-08-11T17:16:31;1.65;;;1.00;;
52554;SDS011;38455;52.710;6.502;2022-08-11T17:19:02;1.23;;;0.80;;
52554;SDS011;38455;52.710;6.502;2022-08-11T17:24:28;2.70;;;1.00;;
52554;SDS011;38455;52.710;6.502;2022-08-11T17:26:56;6.97;;;1.15;;
52554;SDS011;38455;52.710;6.502;2022-08-11T17:32:04;3.78;;;0.85;;
52554;SDS011;38455;52.710;6.502;2022-08-11T17:35:07;3.15;;;0.90;;
52554;SDS011;38455;52.710;6.502;2022-08-11T17:37:55;1.80;;;0.95;;
52554;SDS011;38455;52.710;6.502;2022-08-11T17:40:30;2.53;;;1.02;;
52554;SDS011;38455;52.710;6.502;2022-08-11T17:43:01;2.25;;;0.80;;
52554;SDS011;38455;52.710;6.502;2022-08-11T17:45:49;1.80;;;1.00;;
52554;SDS011;38455;52.710;6.502;2022-08-11T17:48:36;3.73;;;1.17;;
52554;SDS011;38455;52.710;6.502;2022-08-11T17:51:08;1.58;;;1.00;;
52554;SDS011;38455;52.710;6.502;2022-08-11T17:53:58;2.13;;;0.65;;
52554;SDS011;38455;52.710;6.502;2022-08-11T17:59:28;2.40;;;1.00;;
52554;SDS011;38455;52.710;6.502;2022-08-11T18:02:14;2.03;;;0.80;;
52554;SDS011;38455;52.710;6.502;2022-08-11T18:05:00;5.70;;;1.40;;
52554;SDS011;38455;52.710;6.502;2022-08-11T18:07:29;3.00;;;1.23;;
52554;SDS011;38455;52.710;6.502;2022-08-11T18:10:13;1.83;;;1.13;;
52554;SDS011;38455;52.710;6.502;2022-08-11T18:12:59;5.32;;;1.27;;
52554;SDS011;38455;52.710;6.502;2022-08-11T18:15:44;1.80;;;0.98;;
52554;SDS011;38455;52.710;6.502;2022-08-11T18:18:28;2.80;;;1.10;;
52554;SDS011;38455;52.710;6.502;2022-08-11T18:21:13;3.45;;;1.00;;
52554;SDS011;38455;52.710;6.502;2022-08-11T18:24:01;1.75;;;0.98;;
52554;SDS011;38455;52.710;6.502;2022-08-11T18:26:50;2.13;;;0.93;;
52554;SDS011;38455;52.710;6.502;2022-08-11T18:29:38;3.00;;;1.27;;
52554;SDS011;38455;52.710;6.502;2022-08-11T18:32:24;2.28;;;1.08;;
52554;SDS011;38455;52.710;6.502;2022-08-11T18:35:10;5.72;;;1.25;;
52554;SDS011;38455;52.710;6.502;2022-08-11T18:37:57;4.28;;;1.35;;
52554;SDS011;38455;52.710;6.502;2022-08-11T18:40:45;5.35;;;1.52;;
52554;SDS011;38455;52.710;6.502;2022-08-11T18:43:33;20.23;;;1.85;;
52554;SDS011;38455;52.710;6.502;2022-08-11T18:46:19;2.25;;;1.00;;
52554;SDS011;38455;52.710;6.502;2022-08-11T18:49:09;2.47;;;1.20;;
52554;SDS011;38455;52.710;6.502;2022-08-11T18:51:57;4.25;;;1.48;;
52554;SDS011;38455;52.710;6.502;2022-08-11T18:54:45;2.88;;;1.10;;
52554;SDS011;38455;52.710;6.502;2022-08-11T18:57:31;9.70;;;1.30;;
52554;SDS011;38455;52.710;6.502;2022-08-11T19:00:18;4.78;;;1.50;;
52554;SDS011;38455;52.710;6.502;2022-08-11T19:03:03;2.10;;;1.23;;
52554;SDS011;38455;52.710;6.502;2022-08-11T19:05:49;4.78;;;1.50;;
52554;SDS011;38455;52.710;6.502;2022-08-11T19:08:44;2.72;;;1.13;;
52554;SDS011;38455;52.710;6.502;2022-08-11T19:11:33;4.35;;;1.23;;
52554;SDS011;38455;52.710;6.502;2022-08-11T19:14:19;3.60;;;1.52;;
52554;SDS011;38455;52.710;6.502;2022-08-11T19:17:05;2.17;;;1.25;;
52554;SDS011;38455;52.710;6.502;2022-08-11T19:19:51;4.05;;;1.40;;
52554;SDS011;38455;52.710;6.502;2022-08-11T19:22:37;3.08;;;1.77;;
52554;SDS011;38455;52.710;6.502;2022-08-11T19:25:22;5.78;;;1.60;;
52554;SDS011;38455;52.710;6.502;2022-08-11T19:28:09;4.82;;;1.35;;
52554;SDS011;38455;52.710;6.502;2022-08-11T19:30:53;5.15;;;1.85;;
52554;SDS011;38455;52.710;6.502;2022-08-11T19:33:39;5.90;;;1.23;;
52554;SDS011;38455;52.710;6.502;2022-08-11T19:36:25;4.85;;;2.00;;
52554;SDS011;38455;52.710;6.502;2022-08-11T19:39:11;2.97;;;1.40;;